createdAt,value
2018-02-24T00:02:14.611Z,-1.80
2018-02-24T00:04:42.171Z,-1.80
2018-02-24T00:07:09.719Z,-1.90
2018-02-24T00:09:37.315Z,-1.90
2018-02-24T00:12:04.931Z,-2.00
2018-02-24T00:14:32.438Z,-2.00
2018-02-24T00:17:00.012Z,-2.00
2018-02-24T00:19:27.606Z,-2.00
2018-02-24T00:21:55.153Z,-2.00
2018-02-24T00:24:23.417Z,-2.00
2018-02-24T00:26:51.810Z,-1.90
2018-02-24T00:29:19.311Z,-2.00
2018-02-24T00:31:46.809Z,-2.00
2018-02-24T00:34:14.320Z,-2.00
2018-02-24T00:36:41.829Z,-2.00
2018-02-24T00:39:10.807Z,-2.00
2018-02-24T00:41:38.299Z,-2.10
2018-02-24T00:44:05.804Z,-2.00
2018-02-24T00:46:34.110Z,-2.00
2018-02-24T00:49:02.387Z,-2.00
2018-02-24T00:51:30.653Z,-2.00
2018-02-24T00:53:58.923Z,-1.90
2018-02-24T00:56:27.195Z,-1.90
2018-02-24T00:58:55.496Z,-2.00
2018-02-24T01:01:23.752Z,-2.00
2018-02-24T01:03:52.038Z,-1.90
2018-02-24T01:06:19.543Z,-2.00
2018-02-24T01:08:47.036Z,-2.00
2018-02-24T01:11:15.305Z,-2.00
2018-02-24T01:13:43.615Z,-2.00
2018-02-24T01:16:11.117Z,-2.10
2018-02-24T01:18:38.634Z,-2.10
2018-02-24T01:21:06.191Z,-2.00
2018-02-24T01:23:33.696Z,-1.90
2018-02-24T01:26:01.196Z,-1.70
2018-02-24T01:28:28.715Z,-2.00
2018-02-24T01:30:57.016Z,-2.20
2018-02-24T01:33:24.590Z,-2.20
2018-02-24T01:35:52.075Z,-2.20
2018-02-24T01:38:19.585Z,-2.20
2018-02-24T01:40:47.079Z,-2.20
2018-02-24T01:43:14.613Z,-2.30
2018-02-24T01:45:42.138Z,-2.20
2018-02-24T01:48:10.450Z,-2.10
2018-02-24T01:50:41.744Z,-2.20
2018-02-24T01:53:09.243Z,-2.20
2018-02-24T01:55:36.748Z,-2.00
2018-02-24T01:58:04.253Z,-2.10
2018-02-24T02:00:31.775Z,-2.10
2018-02-24T02:02:59.373Z,-2.10
2018-02-24T02:05:26.890Z,-2.20
2018-02-24T02:07:54.482Z,-2.10
2018-02-24T02:10:22.015Z,-2.10
2018-02-24T02:12:49.520Z,-2.10
2018-02-24T02:15:17.062Z,-2.00
2018-02-24T02:17:44.603Z,-2.00
2018-02-24T02:20:12.949Z,-2.20
2018-02-24T02:22:40.483Z,-2.30
2018-02-24T02:25:08.006Z,-2.20
2018-02-24T02:27:35.518Z,-2.20
2018-02-24T02:30:03.035Z,-2.40
2018-02-24T02:32:30.527Z,-2.30
2018-02-24T02:34:58.057Z,-2.50
2018-02-24T02:37:25.556Z,-2.40
2018-02-24T02:39:59.999Z,-2.40
2018-02-24T02:42:27.497Z,-2.40
2018-02-24T02:44:55.017Z,-2.40
2018-02-24T02:47:22.516Z,-2.30
2018-02-24T02:49:50.025Z,-2.40
2018-02-24T02:52:17.511Z,-2.40
2018-02-24T02:54:45.025Z,-2.40
2018-02-24T02:57:13.325Z,-2.50
2018-02-24T02:59:40.830Z,-2.50
2018-02-24T03:02:08.428Z,-2.40
2018-02-24T03:04:35.923Z,-2.50
2018-02-24T03:07:03.429Z,-2.60
2018-02-24T03:09:31.731Z,-2.60
2018-02-24T03:11:59.224Z,-2.70
2018-02-24T03:14:26.736Z,-2.60
2018-02-24T03:16:54.262Z,-2.80
2018-02-24T03:19:21.855Z,-2.70
2018-02-24T03:21:49.361Z,-2.50
2018-02-24T03:24:16.903Z,-2.60
2018-02-24T03:26:44.439Z,-2.60
2018-02-24T03:29:12.783Z,-2.70
2018-02-24T03:31:41.064Z,-2.80
2018-02-24T03:34:08.633Z,-2.80
2018-02-24T03:36:36.163Z,-2.70
2018-02-24T03:39:04.431Z,-2.80
2018-02-24T03:41:31.936Z,-2.90
2018-02-24T03:43:59.493Z,-2.80
2018-02-24T03:46:27.816Z,-2.80
2018-02-24T03:48:55.346Z,-2.90
2018-02-24T03:51:22.846Z,-2.80
2018-02-24T03:53:51.126Z,-2.80
2018-02-24T03:56:19.391Z,-2.80
2018-02-24T03:58:46.972Z,-2.80
2018-02-24T04:01:14.497Z,-2.80
2018-02-24T04:03:41.992Z,-2.80
2018-02-24T04:06:09.514Z,-2.80
2018-02-24T04:08:37.014Z,-2.60
2018-02-24T04:11:04.520Z,-2.70
2018-02-24T04:13:32.020Z,-2.80
2018-02-24T04:15:59.552Z,-3.00
2018-02-24T04:18:27.807Z,-2.90
2018-02-24T04:20:55.344Z,-3.00
2018-02-24T04:23:22.966Z,-2.90
2018-02-24T04:25:50.519Z,-3.00
2018-02-24T04:28:18.021Z,-3.00
2018-02-24T04:30:45.566Z,-3.00
2018-02-24T04:33:13.060Z,-2.90
2018-02-24T04:35:40.667Z,-3.00
2018-02-24T04:38:08.160Z,-3.00
2018-02-24T04:40:35.760Z,-3.00
2018-02-24T04:43:04.068Z,-2.80
2018-02-24T04:45:31.569Z,-2.90
2018-02-24T04:47:59.082Z,-2.70
2018-02-24T04:50:26.624Z,-2.70
2018-02-24T04:52:54.137Z,-2.80
2018-02-24T04:55:21.641Z,-3.00
2018-02-24T04:57:49.190Z,-2.90
2018-02-24T05:00:16.694Z,-2.90
2018-02-24T05:02:44.295Z,-2.90
2018-02-24T05:05:11.820Z,-2.90
2018-02-24T05:07:39.336Z,-2.80
2018-02-24T05:10:06.831Z,-2.90
2018-02-24T05:12:35.861Z,-3.10
2018-02-24T05:15:03.379Z,-3.10
2018-02-24T05:17:30.876Z,-2.90
2018-02-24T05:19:58.388Z,-2.90
2018-02-24T05:22:26.671Z,-3.00
2018-02-24T05:24:54.242Z,-3.00
2018-02-24T05:27:21.839Z,-3.00
2018-02-24T05:29:49.359Z,-3.10
2018-02-24T05:32:17.629Z,-3.00
2018-02-24T05:34:45.205Z,-3.10
2018-02-24T05:37:12.717Z,-3.00
2018-02-24T05:39:40.220Z,-3.10
2018-02-24T05:42:08.495Z,-3.00
2018-02-24T05:44:36.754Z,-3.10
2018-02-24T05:47:05.022Z,-3.10
2018-02-24T05:49:32.520Z,-3.10
2018-02-24T05:52:00.034Z,-3.20
2018-02-24T05:54:28.764Z,-3.30
2018-02-24T05:56:56.398Z,-3.30
2018-02-24T05:59:23.911Z,-3.30
2018-02-24T06:01:51.429Z,-3.40
2018-02-24T06:04:18.961Z,-3.40
2018-02-24T06:06:47.255Z,-3.30
2018-02-24T06:09:14.757Z,-3.40
2018-02-24T06:11:42.278Z,-3.40
2018-02-24T06:14:09.773Z,-3.40
2018-02-24T06:16:37.291Z,-3.20
2018-02-24T06:19:04.791Z,-3.20
2018-02-24T06:21:32.321Z,-3.20
2018-02-24T06:23:59.845Z,-3.30
2018-02-24T06:26:27.364Z,-3.30
2018-02-24T06:28:54.964Z,-3.30
2018-02-24T06:31:22.451Z,-3.40
2018-02-24T06:33:49.983Z,-3.50
2018-02-24T06:36:17.495Z,-3.40
2018-02-24T06:38:44.988Z,-3.40
2018-02-24T06:41:12.504Z,-3.40
2018-02-24T06:43:39.995Z,-3.30
2018-02-24T06:46:07.509Z,-3.20
2018-02-24T06:48:35.122Z,-3.10
2018-02-24T06:51:02.628Z,-3.20
2018-02-24T06:53:30.125Z,-3.30
2018-02-24T06:55:58.403Z,-3.20
2018-02-24T06:58:26.659Z,-3.30
2018-02-24T07:00:54.241Z,-3.30
2018-02-24T07:03:21.748Z,-3.20
2018-02-24T07:05:49.237Z,-3.10
2018-02-24T07:08:17.517Z,-3.10
2018-02-24T07:10:48.955Z,-3.00
2018-02-24T07:13:17.380Z,-3.10
2018-02-24T07:15:44.912Z,-3.10
2018-02-24T07:18:12.421Z,-3.20
2018-02-24T07:20:40.020Z,-3.20
2018-02-24T07:23:07.515Z,-3.10
2018-02-24T07:25:35.028Z,-3.10
2018-02-24T07:28:03.304Z,-3.00
2018-02-24T07:30:31.592Z,-2.80
2018-02-24T07:32:59.126Z,-2.90
2018-02-24T07:35:27.419Z,-3.10
2018-02-24T07:37:54.933Z,-3.10
2018-02-24T07:40:22.476Z,-3.20
2018-02-24T07:42:50.001Z,-3.50
2018-02-24T07:45:17.595Z,-3.40
2018-02-24T07:47:45.095Z,-3.40
2018-02-24T07:50:13.372Z,-3.40
2018-02-24T07:52:41.631Z,-3.30
2018-02-24T07:55:09.933Z,-3.30
2018-02-24T07:57:37.493Z,-3.30
2018-02-24T08:00:05.018Z,-3.30
2018-02-24T08:02:32.516Z,-3.20
2018-02-24T08:05:00.075Z,-3.50
2018-02-24T08:07:27.601Z,-3.50
2018-02-24T08:09:55.899Z,-3.20
2018-02-24T08:12:23.409Z,-3.30
2018-02-24T08:14:50.992Z,-3.10
2018-02-24T08:17:19.309Z,-3.10
2018-02-24T08:19:47.548Z,-3.10
2018-02-24T08:22:15.927Z,-3.00
2018-02-24T08:24:44.213Z,-3.00
2018-02-24T08:27:11.716Z,-3.10
2018-02-24T08:29:39.225Z,-3.00
2018-02-24T08:32:06.735Z,-2.90
2018-02-24T08:34:34.245Z,-2.90
2018-02-24T08:37:01.793Z,-3.10
2018-02-24T08:39:29.349Z,-3.10
2018-02-24T08:41:57.614Z,-3.30
2018-02-24T08:44:25.924Z,-3.20
2018-02-24T08:46:53.428Z,-3.30
2018-02-24T08:49:20.935Z,-3.00
2018-02-24T08:51:48.423Z,-2.80
2018-02-24T08:54:15.931Z,-3.00
2018-02-24T08:56:43.436Z,-3.00
2018-02-24T08:59:10.939Z,-3.00
2018-02-24T09:01:38.457Z,-2.80
2018-02-24T09:04:05.965Z,-2.50
2018-02-24T09:06:33.603Z,-2.20
2018-02-24T09:09:01.960Z,-1.40
2018-02-24T09:11:29.464Z,-1.40
2018-02-24T09:13:56.981Z,-1.70
2018-02-24T09:16:24.582Z,-2.00
2018-02-24T09:18:52.094Z,-1.60
2018-02-24T09:21:20.376Z,-1.00
2018-02-24T09:23:48.675Z,-0.80
2018-02-24T09:26:16.185Z,-0.80
2018-02-24T09:28:43.704Z,0.00
2018-02-24T09:31:11.224Z,0.10
2018-02-24T09:33:38.818Z,-0.80
2018-02-24T09:36:06.344Z,-0.60
2018-02-24T09:38:34.623Z,0.30
2018-02-24T09:41:03.013Z,0.70
2018-02-24T09:43:30.514Z,0.70
2018-02-24T09:45:58.019Z,0.20
2018-02-24T09:48:25.531Z,0.40
2018-02-24T09:50:53.146Z,0.60
2018-02-24T09:53:20.688Z,1.20
2018-02-24T09:55:48.991Z,1.40
2018-02-24T09:58:16.647Z,1.30
2018-02-24T10:00:44.206Z,0.90
2018-02-24T10:03:11.717Z,0.80
2018-02-24T10:05:39.208Z,0.90
2018-02-24T10:08:06.713Z,1.00
2018-02-24T10:10:34.208Z,0.60
2018-02-24T10:13:02.503Z,1.40
2018-02-24T10:15:30.010Z,1.40
2018-02-24T10:17:57.532Z,1.40
2018-02-24T10:20:25.074Z,1.30
2018-02-24T10:22:52.571Z,1.40
2018-02-24T10:25:20.081Z,1.60
2018-02-24T10:27:47.605Z,1.60
2018-02-24T10:30:15.881Z,1.20
2018-02-24T10:32:44.443Z,1.20
2018-02-24T10:35:12.004Z,1.20
2018-02-24T10:37:39.507Z,1.30
2018-02-24T10:40:06.995Z,1.70
2018-02-24T10:42:34.504Z,1.60
2018-02-24T10:45:02.768Z,1.70
2018-02-24T10:47:31.061Z,1.70
2018-02-24T10:49:58.553Z,1.70
2018-02-24T10:52:26.078Z,1.70
2018-02-24T10:54:53.586Z,1.90
2018-02-24T10:57:21.097Z,1.70
2018-02-24T10:59:48.647Z,1.40
2018-02-24T11:02:16.150Z,1.30
2018-02-24T11:04:43.674Z,1.50
2018-02-24T11:07:11.173Z,1.60
2018-02-24T11:09:38.683Z,1.50
2018-02-24T11:12:06.233Z,1.10
2018-02-24T11:14:33.724Z,1.00
2018-02-24T11:17:01.221Z,1.40
2018-02-24T11:19:29.501Z,1.60
2018-02-24T11:21:57.798Z,2.00
2018-02-24T11:24:25.316Z,1.90
2018-02-24T11:26:52.841Z,2.10
2018-02-24T11:29:20.349Z,2.00
2018-02-24T11:31:48.615Z,1.40
2018-02-24T11:34:16.142Z,1.40
2018-02-24T11:36:43.748Z,1.90
2018-02-24T11:39:12.030Z,2.00
2018-02-24T11:41:39.546Z,1.90
2018-02-24T11:44:07.062Z,1.60
2018-02-24T11:46:34.596Z,1.70
2018-02-24T11:49:02.101Z,1.30
2018-02-24T11:51:29.947Z,1.20
2018-02-24T11:53:57.445Z,1.50
2018-02-24T11:56:24.938Z,1.00
2018-02-24T11:58:52.513Z,1.30
2018-02-24T12:01:20.020Z,2.00
2018-02-24T12:03:47.627Z,1.70
2018-02-24T12:06:15.139Z,1.70
2018-02-24T12:08:42.632Z,1.70
2018-02-24T12:11:10.135Z,1.70
2018-02-24T12:13:37.641Z,1.50
2018-02-24T12:16:05.159Z,1.00
2018-02-24T12:18:32.644Z,0.90
2018-02-24T12:21:00.141Z,1.10
2018-02-24T12:23:27.661Z,1.10
2018-02-24T12:25:55.167Z,1.00
2018-02-24T12:28:22.685Z,1.40
2018-02-24T12:30:50.183Z,1.60
2018-02-24T12:33:17.692Z,1.20
2018-02-24T12:35:45.192Z,1.20
2018-02-24T12:38:12.720Z,1.10
2018-02-24T12:40:40.244Z,1.20
2018-02-24T12:43:08.512Z,1.30
2018-02-24T12:45:36.776Z,1.20
2018-02-24T12:48:04.318Z,1.10
2018-02-24T12:50:31.810Z,1.00
2018-02-24T12:53:00.115Z,0.70
2018-02-24T12:55:27.624Z,0.70
2018-02-24T12:57:55.134Z,0.70
2018-02-24T13:00:22.650Z,0.60
2018-02-24T13:02:50.905Z,1.20
2018-02-24T13:05:18.454Z,1.10
2018-02-24T13:07:45.973Z,1.30
2018-02-24T13:10:13.464Z,1.10
2018-02-24T13:12:41.064Z,0.90
2018-02-24T13:15:09.337Z,0.80
2018-02-24T13:17:37.617Z,0.70
2018-02-24T13:20:05.173Z,0.60
2018-02-24T13:22:32.731Z,0.80
2018-02-24T13:25:00.294Z,0.60
2018-02-24T13:27:27.853Z,0.60
2018-02-24T13:29:55.376Z,0.50
2018-02-24T13:32:22.926Z,0.50
2018-02-24T13:34:50.440Z,0.40
2018-02-24T13:37:17.931Z,0.70
2018-02-24T13:39:45.411Z,0.80
2018-02-24T13:42:12.909Z,0.60
2018-02-24T13:44:40.425Z,0.50
2018-02-24T13:47:08.685Z,0.30
2018-02-24T13:49:36.172Z,0.30
2018-02-24T13:52:04.558Z,0.40
2018-02-24T13:54:32.058Z,0.30
2018-02-24T13:56:59.698Z,0.60
2018-02-24T13:59:27.187Z,0.40
2018-02-24T14:01:54.681Z,0.40
2018-02-24T14:04:22.242Z,0.30
2018-02-24T14:06:49.820Z,0.50
2018-02-24T14:09:17.324Z,0.60
2018-02-24T14:11:44.816Z,0.50
2018-02-24T14:14:12.377Z,0.50
2018-02-24T14:16:39.881Z,0.40
2018-02-24T14:19:07.377Z,0.50
2018-02-24T14:21:35.640Z,0.50
2018-02-24T14:24:03.915Z,0.40
2018-02-24T14:26:32.194Z,0.50
2018-02-24T14:29:00.480Z,0.50
2018-02-24T14:31:27.997Z,0.50
2018-02-24T14:33:55.556Z,0.40
2018-02-24T14:36:23.062Z,0.30
2018-02-24T14:38:50.576Z,0.20
2018-02-24T14:41:18.068Z,0.30
2018-02-24T14:43:45.571Z,0.30
2018-02-24T14:46:13.065Z,0.20
2018-02-24T14:48:41.332Z,0.00
2018-02-24T14:51:08.899Z,-0.10
2018-02-24T14:53:37.193Z,0.40
2018-02-24T14:56:04.695Z,0.30
2018-02-24T14:58:32.300Z,0.20
2018-02-24T15:00:59.794Z,0.20
2018-02-24T15:03:27.295Z,0.30
2018-02-24T15:05:55.582Z,0.20
2018-02-24T15:08:23.869Z,0.20
2018-02-24T15:10:51.386Z,0.10
2018-02-24T15:13:18.888Z,0.20
2018-02-24T15:15:46.381Z,0.20
2018-02-24T15:18:13.900Z,0.10
2018-02-24T15:20:41.432Z,0.00
2018-02-24T15:23:09.715Z,-0.10
2018-02-24T15:25:38.122Z,0.00
2018-02-24T15:28:05.622Z,0.00
2018-02-24T15:30:33.155Z,-0.10
2018-02-24T15:33:00.675Z,-0.10
2018-02-24T15:35:28.190Z,-0.20
2018-02-24T15:37:55.834Z,-0.20
2018-02-24T15:40:23.323Z,-0.10
2018-02-24T15:42:51.625Z,-0.30
2018-02-24T15:45:19.131Z,-0.30
2018-02-24T15:47:46.634Z,-0.20
2018-02-24T15:50:14.131Z,-0.20
2018-02-24T15:52:41.652Z,-0.20
2018-02-24T15:55:09.148Z,-0.20
2018-02-24T15:57:36.649Z,-0.10
2018-02-24T16:00:05.036Z,-0.30
2018-02-24T16:02:32.551Z,-0.40
2018-02-24T16:05:00.078Z,-0.40
2018-02-24T16:07:27.609Z,-0.30
2018-02-24T16:09:55.126Z,-0.30
2018-02-24T16:12:22.672Z,-0.40
2018-02-24T16:14:50.187Z,-0.50
2018-02-24T16:17:17.680Z,-0.50
2018-02-24T16:19:45.203Z,-0.60
2018-02-24T16:22:12.805Z,-0.60
2018-02-24T16:24:40.294Z,-0.50
2018-02-24T16:27:08.569Z,-0.60
2018-02-24T16:29:37.249Z,-0.50
2018-02-24T16:32:04.807Z,-0.50
2018-02-24T16:34:33.086Z,-0.70
2018-02-24T16:37:01.378Z,-0.60
2018-02-24T16:39:28.932Z,-0.60
2018-02-24T16:41:56.485Z,-0.70
2018-02-24T16:44:24.758Z,-0.80
2018-02-24T16:46:53.017Z,-0.80
2018-02-24T16:49:21.384Z,-0.80
2018-02-24T16:51:48.885Z,-0.80
2018-02-24T16:54:16.396Z,-0.80
2018-02-24T16:56:43.936Z,-0.90
2018-02-24T16:59:11.434Z,-0.80
2018-02-24T17:01:39.695Z,-1.00
2018-02-24T17:04:07.984Z,-1.00
2018-02-24T17:06:36.253Z,-1.00
2018-02-24T17:09:04.521Z,-1.10
2018-02-24T17:11:32.917Z,-1.10
2018-02-24T17:14:00.417Z,-1.10
2018-02-24T17:16:28.045Z,-1.00
2018-02-24T17:18:55.555Z,-1.00
2018-02-24T17:21:23.083Z,-1.10
2018-02-24T17:23:50.583Z,-1.20
2018-02-24T17:26:18.099Z,-1.20
2018-02-24T17:28:45.592Z,-1.20
2018-02-24T17:31:13.897Z,-1.20
2018-02-24T17:33:41.432Z,-1.30
2018-02-24T17:36:09.718Z,-1.30
2018-02-24T17:38:37.215Z,-1.40
2018-02-24T17:41:04.737Z,-1.40
2018-02-24T17:43:32.315Z,-1.40
2018-02-24T17:45:59.845Z,-1.40
2018-02-24T17:48:28.129Z,-1.40
2018-02-24T17:50:55.649Z,-1.50
2018-02-24T17:53:24.658Z,-1.60
2018-02-24T17:55:52.959Z,-1.60
2018-02-24T17:58:20.455Z,-1.70
2018-02-24T18:00:47.980Z,-1.80
2018-02-24T18:03:15.508Z,-1.80
2018-02-24T18:05:43.771Z,-1.90
2018-02-24T18:08:11.296Z,-1.90
2018-02-24T18:10:38.831Z,-1.90
2018-02-24T18:13:06.335Z,-1.80
2018-02-24T18:15:33.845Z,-1.90
2018-02-24T18:18:01.351Z,-2.00
2018-02-24T18:20:28.873Z,-1.90
2018-02-24T18:22:56.364Z,-2.00
2018-02-24T18:25:23.859Z,-1.90
2018-02-24T18:27:51.409Z,-1.90
2018-02-24T18:30:18.937Z,-2.00
2018-02-24T18:32:46.530Z,-2.00
2018-02-24T18:35:14.062Z,-1.90
2018-02-24T18:37:42.522Z,-2.10
2018-02-24T18:40:10.013Z,-2.20
2018-02-24T18:42:38.389Z,-2.30
2018-02-24T18:45:06.657Z,-2.50
2018-02-24T18:47:34.936Z,-2.50
2018-02-24T18:50:03.187Z,-2.50
2018-02-24T18:52:30.683Z,-2.60
2018-02-24T18:54:58.188Z,-2.60
2018-02-24T18:57:25.720Z,-2.60
2018-02-24T18:59:54.024Z,-2.50
2018-02-24T19:02:22.286Z,-2.60
2018-02-24T19:04:49.802Z,-2.70
2018-02-24T19:07:17.326Z,-2.70
2018-02-24T19:09:44.842Z,-2.80
2018-02-24T19:12:12.370Z,-2.80
2018-02-24T19:14:39.869Z,-2.70
2018-02-24T19:17:07.393Z,-2.90
2018-02-24T19:19:34.922Z,-2.90
2018-02-24T19:22:03.332Z,-2.90
2018-02-24T19:24:30.874Z,-3.00
2018-02-24T19:26:58.372Z,-3.00
2018-02-24T19:29:25.899Z,-2.90
2018-02-24T19:31:53.441Z,-3.00
2018-02-24T19:37:12.748Z,-3.10
2018-02-24T19:45:40.650Z,-3.20
2018-02-24T19:53:49.785Z,-3.20
2018-02-24T20:02:05.356Z,-3.30
2018-02-24T20:24:28.750Z,-3.50
2018-02-24T20:26:56.250Z,-3.50
2018-02-24T20:29:23.824Z,-3.40
2018-02-24T20:31:51.352Z,-3.60
2018-02-24T20:34:18.864Z,-3.70
2018-02-24T20:36:46.355Z,-3.60
2018-02-24T20:39:14.693Z,-3.60
2018-02-24T20:41:42.200Z,-3.70
2018-02-24T20:44:09.697Z,-3.70
2018-02-24T20:46:37.226Z,-3.80
2018-02-24T20:49:04.731Z,-3.70
2018-02-24T20:51:32.241Z,-3.60
2018-02-24T20:53:59.732Z,-3.60
2018-02-24T20:56:27.336Z,-3.60
2018-02-24T20:58:55.615Z,-3.50
2018-02-24T21:01:23.142Z,-3.60
2018-02-24T21:03:50.662Z,-3.70
2018-02-24T21:06:18.196Z,-3.90
2018-02-24T21:08:45.768Z,-3.80
2018-02-24T21:11:13.314Z,-3.80
2018-02-24T21:13:40.807Z,-3.80
2018-02-24T21:16:08.335Z,-3.80
2018-02-24T21:18:35.833Z,-3.70
2018-02-24T21:21:03.335Z,-3.80
2018-02-24T21:23:30.887Z,-3.90
2018-02-24T21:25:58.464Z,-3.80
2018-02-24T21:28:25.988Z,-3.90
2018-02-24T21:30:54.253Z,-3.90
2018-02-24T21:33:22.622Z,-3.70
2018-02-24T21:35:50.131Z,-3.80
2018-02-24T21:38:17.632Z,-3.70
2018-02-24T21:40:45.132Z,-3.80
2018-02-24T21:43:12.645Z,-3.90
2018-02-24T21:45:41.079Z,-3.80
2018-02-24T21:48:08.596Z,-3.90
2018-02-24T21:50:36.878Z,-3.90
2018-02-24T21:53:05.141Z,-3.80
2018-02-24T21:55:33.427Z,-3.90
2018-02-24T21:58:01.701Z,-3.90
2018-02-24T22:00:29.973Z,-4.00
2018-02-24T22:02:58.247Z,-4.10
2018-02-24T22:05:26.530Z,-4.30
2018-02-24T22:07:54.048Z,-4.30
2018-02-24T22:10:21.541Z,-4.30
2018-02-24T22:12:49.804Z,-4.30
2018-02-24T22:15:17.300Z,-4.40
2018-02-24T22:17:44.792Z,-4.30
2018-02-24T22:20:12.306Z,-4.40
2018-02-24T22:22:39.806Z,-4.60
2018-02-24T22:25:07.350Z,-4.60
2018-02-24T22:27:34.852Z,-4.70
2018-02-24T22:30:03.121Z,-5.00
2018-02-24T22:32:31.397Z,-5.10
2018-02-24T22:34:59.673Z,-5.00
2018-02-24T22:37:28.083Z,-5.10
2018-02-24T22:39:55.631Z,-5.20
2018-02-24T22:42:23.126Z,-5.20
2018-02-24T22:44:50.643Z,-5.10
2018-02-24T22:47:18.144Z,-5.20
2018-02-24T22:49:45.658Z,-5.30
2018-02-24T22:52:13.164Z,-5.30
2018-02-24T22:54:40.672Z,-5.50
2018-02-24T22:57:08.181Z,-5.60
2018-02-24T22:59:35.717Z,-5.60
2018-02-24T23:02:03.232Z,-5.70
2018-02-24T23:04:30.731Z,-5.60
2018-02-24T23:06:58.241Z,-5.70
2018-02-24T23:09:25.752Z,-5.70
2018-02-24T23:11:53.280Z,-5.90
2018-02-24T23:14:20.781Z,-5.80
2018-02-24T23:16:48.369Z,-5.90
2018-02-24T23:19:16.662Z,-5.90
2018-02-24T23:21:44.168Z,-6.00
2018-02-24T23:24:11.693Z,-6.00
2018-02-24T23:26:39.194Z,-6.00
2018-02-24T23:29:07.452Z,-5.90
2018-02-24T23:31:34.971Z,-6.00
2018-02-24T23:34:02.489Z,-5.90
2018-02-24T23:36:30.764Z,-6.00
2018-02-24T23:38:59.057Z,-6.10
2018-02-24T23:41:27.338Z,-6.10
2018-02-24T23:43:54.855Z,-6.10
2018-02-24T23:46:22.379Z,-6.10
2018-02-24T23:48:49.880Z,-5.90
2018-02-24T23:51:18.175Z,-6.00
2018-02-24T23:53:45.695Z,-6.10
2018-02-24T23:56:13.191Z,-6.10
2018-02-24T23:58:40.695Z,-6.10
